Time;durP1;ratioP1;P1;durP2;ratioP2;P2;SDS_P1;SDS_P2;PMS_P1;PMS_P2;Temp;Humidity;BMP_temperature;BMP_pressure;BME280_temperature;BME280_humidity;BME280_pressure;Samples;Min_cycle;Max_cycle;Signal;HPM_P1;HPM_P2
2023/10/24 00:01:58;;;;;;;5.40;4.07;;;15.50;99.90;;;;;;5014017;28;20913;-65
2023/10/24 00:04:25;;;;;;;6.00;4.37;;;15.50;99.90;;;;;;5013182;28;20217;-65
2023/10/24 00:06:51;;;;;;;4.17;3.87;;;15.50;99.90;;;;;;5013081;28;20610;-65
2023/10/24 00:09:16;;;;;;;4.50;4.10;;;15.60;99.90;;;;;;4997137;28;20434;-60
2023/10/24 00:11:42;;;;;;;4.60;4.30;;;15.60;99.90;;;;;;4993884;28;20290;-64
2023/10/24 00:14:08;;;;;;;4.60;4.30;;;15.50;99.90;;;;;;4993068;28;20251;-65
2023/10/24 00:16:34;;;;;;;4.20;3.97;;;15.40;99.90;;;;;;4993177;28;20175;-64
2023/10/24 00:18:59;;;;;;;5.50;5.10;;;15.30;99.90;;;;;;5006590;28;20214;-65
2023/10/24 00:21:25;;;;;;;5.13;4.63;;;15.20;99.90;;;;;;5011897;28;20257;-64
2023/10/24 00:23:52;;;;;;;4.23;4.00;;;15.20;99.90;;;;;;5012614;28;20195;-65
2023/10/24 00:26:18;;;;;;;4.67;4.20;;;15.30;99.90;;;;;;5012550;28;20191;-61
2023/10/24 00:28:43;;;;;;;5.00;4.47;;;15.20;99.90;;;;;;5012822;28;20432;-65
2023/10/24 00:31:09;;;;;;;5.00;4.70;;;15.10;99.90;;;;;;5011549;28;20512;-65
2023/10/24 00:33:35;;;;;;;5.77;5.27;;;15.20;99.90;;;;;;5009921;28;20266;-65
2023/10/24 00:36:01;;;;;;;6.53;4.90;;;15.20;99.90;;;;;;5009862;28;20181;-65
2023/10/24 00:38:27;;;;;;;5.07;4.60;;;15.30;99.90;;;;;;5012154;28;20480;-65
2023/10/24 00:40:53;;;;;;;5.53;5.23;;;15.20;99.90;;;;;;5011222;28;20191;-65
2023/10/24 00:43:19;;;;;;;4.87;4.60;;;15.20;99.90;;;;;;5011770;28;20644;-60
2023/10/24 00:45:45;;;;;;;5.17;4.90;;;15.10;99.90;;;;;;5012270;28;20213;-65
2023/10/24 00:48:11;;;;;;;5.90;4.50;;;15.10;99.90;;;;;;5013028;28;20208;-65
2023/10/24 00:50:36;;;;;;;5.80;5.40;;;15.00;99.90;;;;;;5010658;28;20935;-63
2023/10/24 00:53:03;;;;;;;5.50;5.10;;;14.90;99.90;;;;;;5004626;28;20240;-65
2023/10/24 00:55:30;;;;;;;5.63;5.23;;;15.00;99.90;;;;;;5011963;28;20171;-64
2023/10/24 00:57:58;;;;;;;5.30;4.90;;;15.00;99.90;;;;;;4993095;28;20766;-65
2023/10/24 01:00:26;;;;;;;6.27;5.60;;;15.10;99.90;;;;;;5007087;28;20413;-64
2023/10/24 01:02:52;;;;;;;5.63;5.07;;;15.10;99.90;;;;;;5009636;28;20412;-65
2023/10/24 01:05:18;;;;;;;6.27;5.57;;;15.10;99.90;;;;;;4992098;28;20426;-64
2023/10/24 01:07:45;;;;;;;4.77;4.50;;;15.10;99.90;;;;;;5003165;28;20453;-65
2023/10/24 01:10:11;;;;;;;5.93;5.53;;;15.10;99.90;;;;;;5012515;28;20179;-65
2023/10/24 01:12:38;;;;;;;5.17;4.70;;;15.10;99.90;;;;;;5010517;28;20421;-65
2023/10/24 01:15:06;;;;;;;5.00;4.80;;;15.10;99.90;;;;;;5011588;28;20240;-64
2023/10/24 01:17:31;;;;;;;5.63;5.23;;;15.20;99.90;;;;;;5011359;28;20420;-64
2023/10/24 01:19:57;;;;;;;5.20;4.80;;;15.30;99.90;;;;;;5012492;28;20836;-64
2023/10/24 01:22:23;;;;;;;5.03;4.73;;;15.20;99.90;;;;;;5009204;28;20190;-59
2023/10/24 01:24:50;;;;;;;5.33;4.93;;;15.20;99.90;;;;;;5010928;28;20264;-64
2023/10/24 01:27:18;;;;;;;4.10;3.90;;;15.30;99.90;;;;;;5012658;28;20178;-64
2023/10/24 01:29:44;;;;;;;4.47;4.17;;;15.20;99.90;;;;;;5009799;28;20429;-64
2023/10/24 01:32:10;;;;;;;4.40;4.00;;;15.20;99.90;;;;;;5012549;28;20409;-64
2023/10/24 01:34:36;;;;;;;4.33;4.10;;;15.30;99.90;;;;;;5011725;28;20170;-64
2023/10/24 01:37:01;;;;;;;4.40;4.10;;;15.30;99.90;;;;;;5012510;28;20649;-64
2023/10/24 01:39:27;;;;;;;4.33;3.93;;;15.40;99.90;;;;;;5010499;28;20238;-64
2023/10/24 01:41:53;;;;;;;4.23;4.03;;;15.50;99.90;;;;;;5012524;28;20183;-65
2023/10/24 01:44:19;;;;;;;3.73;3.53;;;15.50;99.90;;;;;;5012121;28;20530;-64
2023/10/24 01:46:44;;;;;;;4.07;3.77;;;15.50;99.90;;;;;;5005216;28;20773;-64
2023/10/24 01:49:10;;;;;;;3.70;3.47;;;15.50;99.90;;;;;;5011582;28;20190;-65
2023/10/24 01:51:36;;;;;;;3.80;3.60;;;15.60;99.90;;;;;;5010853;28;20243;-64
2023/10/24 01:54:01;;;;;;;4.80;4.40;;;15.60;99.90;;;;;;5002940;28;20198;-64
2023/10/24 01:56:27;;;;;;;4.40;4.10;;;15.60;99.90;;;;;;4991761;28;20245;-64
2023/10/24 01:58:53;;;;;;;4.67;4.30;;;15.60;99.90;;;;;;5011011;28;20655;-64
2023/10/24 02:01:19;;;;;;;5.33;4.00;;;15.50;99.90;;;;;;5013353;28;20180;-64
2023/10/24 02:03:44;;;;;;;5.50;4.27;;;15.50;99.90;;;;;;5015125;28;20244;-64
2023/10/24 02:06:10;;;;;;;4.23;3.83;;;15.60;99.90;;;;;;5016256;28;20179;-65
2023/10/24 02:08:36;;;;;;;3.80;3.50;;;15.70;99.90;;;;;;5003687;28;20197;-64
2023/10/24 02:11:01;;;;;;;3.43;3.13;;;15.70;99.90;;;;;;5000622;28;20187;-62
2023/10/24 02:13:27;;;;;;;4.57;4.27;;;15.70;99.90;;;;;;5014466;28;20179;-60
2023/10/24 02:15:53;;;;;;;3.87;3.67;;;15.70;99.90;;;;;;5001576;28;20194;-64
2023/10/24 02:18:19;;;;;;;3.97;3.73;;;15.70;99.90;;;;;;5011886;28;20691;-64
2023/10/24 02:20:45;;;;;;;4.33;4.03;;;15.80;99.90;;;;;;5015231;28;20484;-64
2023/10/24 02:23:11;;;;;;;4.23;3.83;;;15.80;99.90;;;;;;5004866;28;20516;-64
2023/10/24 02:25:37;;;;;;;4.03;3.83;;;15.80;99.90;;;;;;4995220;28;20533;-64
2023/10/24 02:28:03;;;;;;;5.13;4.10;;;15.90;99.90;;;;;;5012839;28;20194;-64
2023/10/24 02:30:29;;;;;;;4.27;4.03;;;15.90;99.90;;;;;;5010973;28;20779;-63
2023/10/24 02:33:00;;;;;;;4.00;3.80;;;15.90;99.90;;;;;;4996459;28;20402;-64
2023/10/24 02:35:27;;;;;;;4.30;4.10;;;15.90;99.90;;;;;;5011217;28;20175;-59
2023/10/24 02:37:53;;;;;;;4.10;3.90;;;16.00;99.90;;;;;;5014610;28;20512;-64
2023/10/24 02:40:18;;;;;;;3.77;3.50;;;15.90;99.90;;;;;;5015607;28;20539;-64
2023/10/24 02:42:44;;;;;;;3.73;3.53;;;15.80;99.90;;;;;;5013455;28;20620;-64
2023/10/24 02:45:10;;;;;;;3.90;3.70;;;15.80;99.90;;;;;;5013486;28;20190;-65
2023/10/24 02:47:36;;;;;;;4.20;3.90;;;15.80;99.90;;;;;;5014383;28;20178;-64
2023/10/24 02:50:02;;;;;;;4.03;3.73;;;15.90;99.90;;;;;;5014796;28;20428;-65
2023/10/24 02:52:30;;;;;;;4.83;4.27;;;15.90;99.90;;;;;;5014335;28;20254;-59
2023/10/24 02:54:56;;;;;;;4.00;3.80;;;15.90;99.90;;;;;;5015266;28;20426;-64
2023/10/24 02:57:22;;;;;;;5.33;4.60;;;15.90;99.90;;;;;;5014595;28;20429;-64
2023/10/24 02:59:49;;;;;;;4.60;4.20;;;15.90;99.90;;;;;;5011176;28;20560;-64
2023/10/24 03:02:15;;;;;;;4.80;4.50;;;16.00;99.90;;;;;;5014997;28;20786;-64
2023/10/24 03:04:40;;;;;;;5.10;4.70;;;15.80;99.90;;;;;;5012601;28;20417;-64
2023/10/24 03:07:06;;;;;;;5.10;4.43;;;15.70;99.90;;;;;;5015186;28;20170;-64
2023/10/24 03:09:33;;;;;;;4.83;4.63;;;15.70;99.90;;;;;;5014261;28;20182;-64
2023/10/24 03:11:59;;;;;;;5.30;4.90;;;15.70;99.90;;;;;;5013853;28;20229;-64
2023/10/24 03:14:24;;;;;;;4.73;4.50;;;15.80;99.90;;;;;;5013847;28;20817;-64
2023/10/24 03:16:50;;;;;;;5.33;4.83;;;15.80;99.90;;;;;;5013595;28;20184;-64
2023/10/24 03:19:16;;;;;;;5.00;4.70;;;15.80;99.90;;;;;;5013073;28;20217;-64
2023/10/24 03:21:42;;;;;;;4.50;4.20;;;15.80;99.90;;;;;;5013473;28;20244;-64
2023/10/24 03:24:08;;;;;;;5.60;5.20;;;15.80;99.90;;;;;;5013613;28;20182;-64
2023/10/24 03:26:34;;;;;;;4.97;4.67;;;15.80;99.90;;;;;;5014137;28;20228;-64
2023/10/24 03:28:59;;;;;;;4.43;4.13;;;15.80;99.90;;;;;;5014664;28;20404;-64
2023/10/24 03:31:25;;;;;;;4.77;4.00;;;15.80;99.90;;;;;;5014653;28;20182;-64
2023/10/24 03:33:51;;;;;;;3.90;3.70;;;15.70;99.90;;;;;;5008100;28;20191;-64
2023/10/24 03:36:17;;;;;;;3.77;3.60;;;15.70;99.90;;;;;;4994997;28;20186;-65
2023/10/24 03:38:43;;;;;;;4.17;3.97;;;15.60;99.90;;;;;;5005661;28;20607;-64
2023/10/24 03:41:09;;;;;;;3.90;3.70;;;15.70;99.90;;;;;;5012409;28;20633;-64
2023/10/24 03:43:39;;;;;;;3.80;3.60;;;15.70;99.90;;;;;;5013272;28;20524;-64
2023/10/24 03:46:06;;;;;;;5.23;3.87;;;15.70;99.90;;;;;;5014486;28;20171;-65
2023/10/24 03:48:32;;;;;;;4.80;4.50;;;15.80;99.90;;;;;;5013826;28;20833;-60
2023/10/24 03:51:01;;;;;;;122.10;98.57;;;15.80;99.90;;;;;;5013909;28;20457;-64
2023/10/24 03:53:27;;;;;;;196.20;147.50;;;15.90;99.90;;;;;;5013653;28;20433;-66
2023/10/24 03:55:59;;;;;;;12.70;11.43;;;15.90;99.90;;;;;;5013381;28;20393;-64
2023/10/24 03:58:26;;;;;;;3.50;3.20;;;15.90;99.90;;;;;;5013884;28;20457;-64
2023/10/24 04:00:52;;;;;;;4.97;4.57;;;15.90;99.90;;;;;;4995740;28;20484;-65
2023/10/24 04:03:19;;;;;;;4.27;3.97;;;15.90;99.90;;;;;;5013732;28;20418;-64
2023/10/24 04:05:45;;;;;;;3.70;3.40;;;16.00;99.90;;;;;;5013315;28;20186;-64
2023/10/24 04:08:11;;;;;;;3.60;3.40;;;16.00;99.90;;;;;;5013006;28;20460;-64
2023/10/24 04:10:37;;;;;;;3.27;2.97;;;15.90;99.90;;;;;;5011902;28;20794;-63
2023/10/24 04:13:03;;;;;;;2.87;2.60;;;15.90;99.90;;;;;;5008406;28;20183;-64
2023/10/24 04:15:29;;;;;;;3.07;2.87;;;15.80;99.90;;;;;;5013860;28;20422;-64
2023/10/24 04:17:55;;;;;;;4.17;3.97;;;15.70;99.90;;;;;;5012956;28;20198;-64
2023/10/24 04:20:20;;;;;;;4.07;3.87;;;15.60;99.90;;;;;;5013902;28;20193;-64
2023/10/24 04:22:49;;;;;;;2.60;2.43;;;15.60;99.90;;;;;;5012809;28;20183;-64
2023/10/24 04:25:15;;;;;;;2.97;2.77;;;15.60;99.90;;;;;;5012936;28;20181;-64
2023/10/24 04:27:41;;;;;;;3.23;3.13;;;15.50;99.90;;;;;;5012468;28;20441;-64
2023/10/24 04:30:07;;;;;;;4.20;3.30;;;15.50;99.90;;;;;;5012384;28;20421;-64
2023/10/24 04:32:33;;;;;;;3.47;3.27;;;15.50;99.90;;;;;;5011934;28;20421;-60
2023/10/24 04:35:00;;;;;;;4.90;3.90;;;15.60;99.90;;;;;;5013112;28;20884;-64
2023/10/24 04:37:26;;;;;;;4.40;4.20;;;15.70;99.90;;;;;;5006361;28;20425;-65
2023/10/24 04:39:53;;;;;;;3.60;3.40;;;15.70;99.90;;;;;;5011715;28;21246;-65
2023/10/24 04:42:19;;;;;;;5.97;5.47;;;15.60;99.90;;;;;;5013221;28;20412;-65
2023/10/24 04:44:45;;;;;;;3.23;3.03;;;15.60;99.90;;;;;;5012231;28;20428;-66
2023/10/24 04:47:10;;;;;;;4.83;3.40;;;15.60;99.90;;;;;;5013339;28;20181;-65
2023/10/24 04:49:39;;;;;;;4.20;3.90;;;15.50;99.90;;;;;;5011897;28;20186;-60
2023/10/24 04:52:05;;;;;;;3.77;3.57;;;15.40;99.90;;;;;;5012770;28;20221;-64
2023/10/24 04:54:32;;;;;;;4.47;4.13;;;15.50;99.90;;;;;;5013200;28;20422;-65
2023/10/24 04:57:00;;;;;;;3.57;3.47;;;15.40;99.90;;;;;;5012342;28;20459;-65
2023/10/24 04:59:26;;;;;;;3.63;3.43;;;15.40;99.90;;;;;;5013003;28;20543;-65
2023/10/24 05:01:52;;;;;;;5.27;4.77;;;15.40;99.90;;;;;;5010648;28;20875;-65
2023/10/24 05:04:18;;;;;;;4.00;3.80;;;15.40;99.90;;;;;;5013273;28;20412;-64
2023/10/24 05:06:44;;;;;;;4.13;3.83;;;15.40;99.90;;;;;;5011218;28;20492;-63
2023/10/24 05:09:10;;;;;;;3.10;3.00;;;15.30;99.90;;;;;;5012912;28;20183;-64
2023/10/24 05:11:39;;;;;;;3.10;2.90;;;15.40;99.90;;;;;;5012417;28;20941;-60
2023/10/24 05:14:05;;;;;;;3.20;3.00;;;15.40;99.90;;;;;;5012410;28;20430;-64
2023/10/24 05:16:31;;;;;;;2.80;2.67;;;15.40;99.90;;;;;;5002309;28;20417;-69
2023/10/24 05:18:57;;;;;;;2.70;2.60;;;15.40;99.90;;;;;;5012337;28;20942;-68
2023/10/24 05:21:23;;;;;;;2.53;2.43;;;15.50;99.90;;;;;;5011312;28;20419;-69
2023/10/24 05:23:48;;;;;;;6.20;5.70;;;15.50;99.90;;;;;;5011860;28;20703;-68
2023/10/24 05:26:14;;;;;;;5.50;5.10;;;15.50;99.90;;;;;;5012896;28;20182;-69
2023/10/24 05:28:40;;;;;;;4.70;4.33;;;15.50;99.90;;;;;;5007618;28;20685;-67
2023/10/24 05:31:07;;;;;;;3.00;2.90;;;15.50;99.90;;;;;;5003841;28;20303;-69
2023/10/24 05:33:35;;;;;;;3.10;3.00;;;15.50;99.90;;;;;;4993305;28;20216;-69
2023/10/24 05:36:01;;;;;;;2.80;2.70;;;15.40;99.90;;;;;;5001925;28;20428;-69
2023/10/24 05:38:27;;;;;;;3.10;3.00;;;15.40;99.90;;;;;;5012838;28;20453;-69
2023/10/24 05:40:53;;;;;;;3.30;3.10;;;15.40;99.90;;;;;;4997882;28;20480;-70
2023/10/24 05:43:18;;;;;;;3.63;3.43;;;15.40;99.90;;;;;;5006965;28;20189;-69
2023/10/24 05:45:44;;;;;;;3.30;3.20;;;15.40;99.90;;;;;;5012163;28;20509;-68
2023/10/24 05:48:10;;;;;;;3.40;3.30;;;15.40;99.90;;;;;;5011831;28;20251;-66
2023/10/24 05:50:36;;;;;;;3.33;3.13;;;15.40;99.90;;;;;;4998528;28;20276;-60
2023/10/24 05:53:02;;;;;;;3.43;3.23;;;15.30;99.90;;;;;;4993139;28;20179;-69
2023/10/24 05:55:28;;;;;;;4.10;3.80;;;15.30;99.90;;;;;;4993508;28;20437;-69
2023/10/24 05:57:54;;;;;;;3.97;3.77;;;15.30;99.90;;;;;;5006442;28;20942;-68
2023/10/24 06:00:19;;;;;;;3.73;3.53;;;15.30;99.90;;;;;;5001698;28;20267;-68
2023/10/24 06:02:45;;;;;;;3.50;3.20;;;15.30;99.90;;;;;;5001320;28;20190;-74
2023/10/24 06:05:11;;;;;;;4.10;3.90;;;15.40;99.90;;;;;;5011984;28;20187;-66
2023/10/24 06:07:37;;;;;;;3.77;3.63;;;15.30;99.90;;;;;;5007705;28;20199;-60
2023/10/24 06:10:03;;;;;;;3.80;3.60;;;15.40;99.90;;;;;;5004952;28;20536;-69
2023/10/24 06:12:30;;;;;;;3.00;2.90;;;15.40;99.90;;;;;;5005708;28;20437;-73
2023/10/24 06:14:55;;;;;;;2.80;2.70;;;15.40;99.90;;;;;;5010609;28;20424;-72
2023/10/24 06:17:21;;;;;;;2.40;2.20;;;15.50;99.90;;;;;;5009068;28;20422;-72
2023/10/24 06:19:49;;;;;;;2.50;2.30;;;15.50;99.90;;;;;;5001161;28;20686;-73
2023/10/24 06:22:15;;;;;;;2.37;2.37;;;15.50;99.90;;;;;;4993115;28;20501;-73
2023/10/24 06:24:41;;;;;;;3.30;3.20;;;15.50;99.90;;;;;;5022560;28;20425;-71
2023/10/24 06:27:09;;;;;;;3.20;3.10;;;15.50;99.90;;;;;;5007834;28;20432;-73
2023/10/24 06:29:35;;;;;;;3.10;3.00;;;15.60;99.90;;;;;;5007890;28;20178;-72
2023/10/24 06:32:01;;;;;;;2.97;2.87;;;15.50;99.90;;;;;;5007767;28;20934;-73
2023/10/24 06:34:26;;;;;;;2.93;2.83;;;15.50;99.90;;;;;;5014306;28;20595;-72
2023/10/24 06:36:52;;;;;;;3.10;3.00;;;15.50;99.90;;;;;;5007677;28;20195;-73
2023/10/24 06:39:18;;;;;;;2.80;2.70;;;15.50;99.90;;;;;;5006850;28;20570;-74
2023/10/24 06:41:45;;;;;;;2.43;2.33;;;15.50;99.90;;;;;;5004204;28;20213;-69
2023/10/24 06:44:10;;;;;;;3.30;3.10;;;15.50;99.90;;;;;;5011919;28;20182;-73
2023/10/24 06:46:36;;;;;;;3.10;3.00;;;15.50;99.90;;;;;;5010449;28;20933;-72
2023/10/24 06:49:02;;;;;;;3.37;3.10;;;15.50;99.90;;;;;;4995249;28;20666;-71
2023/10/24 06:51:28;;;;;;;3.33;3.23;;;15.50;99.90;;;;;;5015112;28;20233;-74
2023/10/24 06:53:53;;;;;;;3.07;2.97;;;15.50;99.90;;;;;;5013680;28;20187;-73
2023/10/24 06:56:19;;;;;;;3.93;3.73;;;15.60;99.90;;;;;;5008275;28;20430;-73
2023/10/24 06:58:45;;;;;;;3.50;3.40;;;15.50;99.90;;;;;;5012021;28;20226;-72
2023/10/24 07:01:11;;;;;;;3.70;3.40;;;15.50;99.90;;;;;;4996982;28;20264;-73
2023/10/24 07:03:36;;;;;;;3.83;3.63;;;15.50;99.90;;;;;;5004659;28;20174;-73
2023/10/24 07:06:03;;;;;;;3.97;3.63;;;15.50;99.90;;;;;;5003552;28;20177;-72
2023/10/24 07:08:29;;;;;;;4.93;4.60;;;15.50;99.90;;;;;;5003233;28;20185;-73
2023/10/24 07:10:55;;;;;;;3.90;3.80;;;15.40;99.90;;;;;;5011464;28;20432;-71
2023/10/24 07:13:20;;;;;;;4.10;3.80;;;15.40;99.90;;;;;;5002507;28;20194;-72
2023/10/24 07:15:46;;;;;;;3.60;3.40;;;15.50;99.90;;;;;;4999163;28;20293;-72
2023/10/24 07:18:12;;;;;;;3.80;3.60;;;15.50;99.90;;;;;;5004597;28;20194;-73
2023/10/24 07:20:38;;;;;;;3.93;3.60;;;15.50;99.90;;;;;;5011357;28;20439;-73
2023/10/24 07:23:05;;;;;;;3.77;3.67;;;15.40;99.90;;;;;;5012783;28;20487;-73
2023/10/24 07:25:31;;;;;;;3.90;3.70;;;15.40;99.90;;;;;;5007966;28;20421;-73
2023/10/24 07:27:57;;;;;;;3.87;3.67;;;15.40;99.90;;;;;;5008761;28;20427;-73
2023/10/24 07:30:24;;;;;;;4.90;4.40;;;15.50;99.90;;;;;;5011353;28;20427;-73
2023/10/24 07:32:53;;;;;;;4.17;3.87;;;15.50;99.90;;;;;;5012742;28;20480;-73
2023/10/24 07:35:23;;;;;;;3.70;3.40;;;15.50;99.90;;;;;;5011317;28;20904;-71
2023/10/24 07:37:49;;;;;;;3.90;3.60;;;15.60;99.90;;;;;;5012505;28;20442;-71
2023/10/24 07:40:15;;;;;;;3.27;3.17;;;15.60;99.90;;;;;;4998617;28;20476;-71
2023/10/24 07:42:41;;;;;;;3.40;3.30;;;15.50;99.90;;;;;;4996756;28;20617;-71
2023/10/24 07:45:07;;;;;;;3.40;3.20;;;15.50;99.90;;;;;;5000700;28;20534;-72
2023/10/24 07:47:33;;;;;;;3.50;3.40;;;15.50;99.90;;;;;;5004169;28;20183;-71
2023/10/24 07:49:59;;;;;;;2.93;2.83;;;15.40;99.90;;;;;;4993772;28;20918;-71
2023/10/24 07:52:25;;;;;;;3.83;3.73;;;15.40;99.90;;;;;;5002214;28;20221;-74
2023/10/24 07:54:51;;;;;;;3.47;3.37;;;15.40;99.90;;;;;;5013389;28;20405;-73
2023/10/24 07:57:16;;;;;;;2.97;2.87;;;15.30;99.90;;;;;;5013315;28;20754;-74
2023/10/24 07:59:42;;;;;;;3.40;3.30;;;15.40;99.90;;;;;;5013494;28;20225;-74
2023/10/24 08:02:08;;;;;;;3.33;3.13;;;15.40;99.90;;;;;;5013310;28;20539;-73
2023/10/24 08:04:34;;;;;;;3.20;3.10;;;15.40;99.90;;;;;;5012276;28;20272;-72
2023/10/24 08:07:03;;;;;;;4.67;4.37;;;15.40;99.90;;;;;;5012152;28;20187;-74
2023/10/24 08:09:29;;;;;;;3.30;3.20;;;15.40;99.90;;;;;;5010062;28;20430;-73
2023/10/24 08:11:54;;;;;;;3.20;3.10;;;15.40;99.90;;;;;;5009364;28;20425;-66
2023/10/24 08:14:20;;;;;;;2.80;2.70;;;15.50;99.90;;;;;;5007976;28;20261;-65
2023/10/24 08:16:46;;;;;;;2.93;2.83;;;15.50;99.90;;;;;;5005650;28;20182;-67
2023/10/24 08:19:12;;;;;;;3.43;2.70;;;15.40;99.90;;;;;;5004980;28;20474;-67
2023/10/24 08:21:37;;;;;;;3.27;3.07;;;15.40;99.90;;;;;;5008103;28;20894;-67
2023/10/24 08:24:04;;;;;;;2.97;2.77;;;15.40;99.90;;;;;;5000973;28;20214;-67
2023/10/24 08:26:29;;;;;;;2.77;2.67;;;15.40;99.90;;;;;;4998429;28;20182;-64
2023/10/24 08:28:55;;;;;;;2.90;2.70;;;15.40;99.90;;;;;;5000186;28;20441;-64
2023/10/24 08:31:21;;;;;;;2.73;2.63;;;15.40;99.90;;;;;;4994371;28;20175;-64
2023/10/24 08:33:46;;;;;;;2.87;2.77;;;15.40;99.90;;;;;;4993742;28;20230;-65
2023/10/24 08:36:12;;;;;;;3.10;3.00;;;15.30;99.90;;;;;;5006996;28;20189;-64
2023/10/24 08:38:38;;;;;;;3.30;3.10;;;15.30;99.90;;;;;;5013711;28;20214;-64
2023/10/24 08:41:04;;;;;;;2.93;2.83;;;15.40;99.90;;;;;;5013148;28;20182;-64
2023/10/24 08:43:31;;;;;;;2.90;2.80;;;15.40;99.90;;;;;;5013683;28;20607;-64
2023/10/24 08:45:57;;;;;;;2.90;2.80;;;15.30;99.90;;;;;;5011902;28;20417;-64
2023/10/24 08:48:24;;;;;;;2.93;2.83;;;15.30;99.90;;;;;;5013373;28;20413;-64
2023/10/24 08:50:50;;;;;;;3.43;3.33;;;15.40;99.90;;;;;;5012790;28;20233;-64
2023/10/24 08:53:16;;;;;;;3.17;3.07;;;15.40;99.90;;;;;;5013270;28;20483;-64
2023/10/24 08:55:53;;;;;;;3.27;3.17;;;15.50;99.90;;;;;;5013801;28;20826;-64
2023/10/24 08:58:20;;;;;;;3.30;3.20;;;15.50;99.90;;;;;;5013556;28;20499;-64
2023/10/24 09:00:47;;;;;;;4.43;4.10;;;15.50;99.90;;;;;;5010697;28;20781;-64
2023/10/24 09:03:16;;;;;;;3.30;3.20;;;15.60;99.90;;;;;;5013400;28;20409;-64
2023/10/24 09:05:44;;;;;;;5.87;3.70;;;15.50;99.90;;;;;;5011822;28;20425;-64
2023/10/24 09:08:10;;;;;;;3.70;3.50;;;15.40;99.90;;;;;;5012790;28;20409;-64
2023/10/24 09:10:36;;;;;;;4.23;4.07;;;15.20;99.90;;;;;;5012766;28;20411;-64
2023/10/24 09:13:05;;;;;;;2.87;2.67;;;15.10;99.90;;;;;;5012619;28;20432;-64
2023/10/24 09:15:34;;;;;;;2.67;2.57;;;15.10;99.90;;;;;;5013245;28;20315;-64
2023/10/24 09:18:05;;;;;;;4.37;4.17;;;15.10;99.90;;;;;;5012266;28;20832;-64
2023/10/24 09:20:32;;;;;;;3.70;3.60;;;15.20;99.90;;;;;;5013382;28;20756;-64
2023/10/24 09:23:09;;;;;;;4.00;3.80;;;15.30;99.90;;;;;;5012248;28;20944;-64
2023/10/24 09:25:35;;;;;;;3.80;3.70;;;15.30;99.90;;;;;;5013100;28;20420;-64
2023/10/24 09:28:18;;;;;;;3.00;2.90;;;15.20;99.90;;;;;;5012483;28;20757;-64
2023/10/24 09:30:44;;;;;;;3.30;3.17;;;15.20;99.90;;;;;;5012063;28;20451;-64
2023/10/24 09:33:11;;;;;;;5.73;5.53;;;15.30;99.90;;;;;;5012379;28;20487;-64
2023/10/24 09:35:37;;;;;;;3.50;3.30;;;15.30;99.90;;;;;;5012114;28;20433;-64
2023/10/24 09:38:07;;;;;;;3.03;2.93;;;15.40;99.90;;;;;;5012245;28;20417;-64
2023/10/24 09:40:37;;;;;;;3.30;3.20;;;15.40;99.90;;;;;;5012916;28;20409;-64
2023/10/24 09:43:24;;;;;;;4.60;4.50;;;15.50;99.90;;;;;;5012202;28;20504;-64
2023/10/24 09:45:51;;;;;;;2.50;2.40;;;15.40;99.90;;;;;;5011876;28;20772;-66
2023/10/24 09:48:18;;;;;;;2.70;2.60;;;15.40;99.90;;;;;;5012878;28;20401;-64
2023/10/24 09:50:44;;;;;;;4.90;4.70;;;15.40;99.90;;;;;;5012748;28;20457;-64
2023/10/24 09:53:12;;;;;;;2.63;2.50;;;15.50;99.90;;;;;;5012266;28;20432;-64
2023/10/24 09:55:48;;;;;;;4.77;4.67;;;15.50;99.90;;;;;;5012782;28;20489;-64
2023/10/24 09:58:17;;;;;;;3.50;3.40;;;15.60;99.90;;;;;;5012119;28;20405;-64
2023/10/24 10:00:43;;;;;;;2.33;2.23;;;15.60;99.90;;;;;;5011522;28;20920;-64
2023/10/24 10:03:09;;;;;;;2.13;2.03;;;15.60;99.90;;;;;;5010633;28;20430;-64
2023/10/24 10:05:37;;;;;;;4.47;4.30;;;15.70;99.90;;;;;;5011447;28;20178;-64
2023/10/24 10:08:07;;;;;;;2.27;2.17;;;15.80;99.90;;;;;;5011708;28;20409;-64
2023/10/24 10:10:36;;;;;;;2.53;2.43;;;15.90;99.90;;;;;;5012696;28;20414;-64
2023/10/24 10:13:05;;;;;;;3.10;2.90;;;15.90;99.90;;;;;;5010760;28;20418;-64
2023/10/24 10:16:05;;;;;;;2.40;2.30;;;15.90;99.90;;;;;;5012699;28;20421;-63
2023/10/24 10:18:42;;;;;;;3.70;3.60;;;16.00;99.90;;;;;;4992926;28;20461;-63
2023/10/24 10:21:23;;;;;;;3.00;2.90;;;16.20;99.90;;;;;;5011532;28;20940;-63
2023/10/24 10:24:16;;;;;;;2.57;2.47;;;16.50;99.90;;;;;;5014774;28;20406;-64
2023/10/24 10:27:08;;;;;;;2.70;2.60;;;16.80;99.90;;;;;;5015001;28;20402;-64
2023/10/24 10:29:56;;;;;;;3.30;3.10;;;17.10;99.90;;;;;;5016295;28;20410;-64
2023/10/24 10:32:29;;;;;;;3.10;2.90;;;17.10;99.90;;;;;;5014769;28;20426;-64
2023/10/24 10:34:54;;;;;;;3.10;3.00;;;17.10;99.90;;;;;;5015628;28;20412;-66
2023/10/24 10:37:20;;;;;;;3.23;3.00;;;17.10;99.90;;;;;;5015103;28;20405;-64
2023/10/24 10:40:24;;;;;;;5.20;4.90;;;17.10;99.90;;;;;;5015761;28;20269;-64
2023/10/24 10:42:51;;;;;;;2.60;2.40;;;17.10;99.90;;;;;;5012573;28;20476;-64
2023/10/24 10:45:27;;;;;;;2.80;2.70;;;17.10;99.90;;;;;;5015359;28;20405;-64
2023/10/24 10:47:55;;;;;;;3.50;3.40;;;17.00;99.90;;;;;;5015911;28;20413;-64
2023/10/24 10:50:32;;;;;;;2.83;2.73;;;16.90;99.90;;;;;;5015748;28;20460;-64
2023/10/24 10:52:58;;;;;;;2.90;2.50;;;16.90;99.90;;;;;;5015504;28;20484;-64
2023/10/24 10:55:59;;;;;;;4.20;4.00;;;17.10;99.90;;;;;;5015510;28;20429;-63
2023/10/24 10:58:56;;;;;;;2.67;2.57;;;17.20;99.90;;;;;;5015325;28;20506;-64
2023/10/24 11:01:50;;;;;;;3.07;2.87;;;17.20;99.90;;;;;;5013430;28;20418;-63
2023/10/24 11:04:16;;;;;;;2.80;2.70;;;17.20;99.90;;;;;;5014728;28;20528;-63
2023/10/24 11:06:59;;;;;;;3.10;3.00;;;17.20;99.90;;;;;;5015517;28;20406;-64
2023/10/24 11:09:32;;;;;;;3.10;3.00;;;17.30;99.90;;;;;;5015411;28;20402;-64
2023/10/24 11:12:20;;;;;;;3.13;3.03;;;17.30;99.90;;;;;;5014688;28;20405;-66
2023/10/24 11:15:13;;;;;;;3.50;3.40;;;17.50;99.90;;;;;;5015353;28;20442;-64
2023/10/24 11:17:39;;;;;;;3.63;3.43;;;17.60;99.90;;;;;;5015325;28;20418;-64
2023/10/24 11:20:06;;;;;;;3.77;3.57;;;17.60;99.90;;;;;;5014510;28;20470;-64
2023/10/24 11:22:32;;;;;;;3.20;3.00;;;17.60;99.90;;;;;;5015220;28;20571;-64
2023/10/24 11:25:10;;;;;;;3.30;3.00;;;17.60;99.90;;;;;;5014798;28;20411;-64
2023/10/24 11:27:41;;;;;;;3.73;3.53;;;17.60;99.90;;;;;;5015251;28;20410;-63
2023/10/24 11:30:07;;;;;;;3.87;3.67;;;17.70;99.90;;;;;;5013076;28;20795;-64
2023/10/24 11:32:34;;;;;;;3.37;3.27;;;17.60;99.90;;;;;;5013174;28;20920;-64
2023/10/24 11:35:02;;;;;;;3.83;3.63;;;17.60;99.90;;;;;;5013882;28;20433;-64
2023/10/24 11:37:28;;;;;;;3.50;3.40;;;17.50;99.90;;;;;;5014933;28;20417;-64
2023/10/24 11:39:56;;;;;;;3.60;3.40;;;17.40;99.90;;;;;;5014779;28;20450;-63
2023/10/24 11:42:22;;;;;;;4.00;3.80;;;17.40;99.90;;;;;;5014064;28;20458;-63
2023/10/24 11:44:48;;;;;;;3.27;3.07;;;17.30;99.90;;;;;;5013737;28;20831;-64
2023/10/24 11:47:16;;;;;;;3.23;3.10;;;17.20;99.90;;;;;;5014146;28;20266;-63
2023/10/24 11:49:46;;;;;;;3.80;3.53;;;17.20;99.90;;;;;;5014529;28;20190;-63
2023/10/24 11:52:12;;;;;;;3.63;3.43;;;17.00;99.90;;;;;;5014308;28;20537;-64
2023/10/24 11:54:40;;;;;;;2.70;2.60;;;16.90;99.90;;;;;;5014602;28;20485;-64
2023/10/24 11:57:06;;;;;;;4.13;4.03;;;16.90;99.90;;;;;;5013897;28;20171;-63
2023/10/24 11:59:36;;;;;;;3.30;3.17;;;16.90;99.90;;;;;;5014495;28;20971;-64
2023/10/24 12:02:03;;;;;;;2.50;2.30;;;16.90;99.90;;;;;;5013939;28;20187;-64
2023/10/24 12:04:30;;;;;;;3.03;2.93;;;16.90;99.90;;;;;;5014358;28;20497;-63
2023/10/24 12:07:09;;;;;;;2.80;2.60;;;17.00;99.90;;;;;;5013128;28;20395;-64
2023/10/24 12:09:35;;;;;;;2.60;2.50;;;17.00;99.90;;;;;;5014245;28;20805;-64
2023/10/24 12:12:02;;;;;;;2.73;2.63;;;17.00;99.90;;;;;;5012711;28;20444;-64
2023/10/24 12:14:28;;;;;;;2.40;2.30;;;17.00;99.90;;;;;;5014368;28;20880;-64
2023/10/24 12:16:53;;;;;;;3.20;3.00;;;16.90;99.90;;;;;;5014233;28;20481;-64
2023/10/24 12:19:20;;;;;;;2.80;2.70;;;16.80;99.90;;;;;;5013519;28;20260;-64
2023/10/24 12:21:46;;;;;;;2.70;2.50;;;16.90;99.90;;;;;;5014505;28;20178;-63
2023/10/24 12:24:12;;;;;;;3.23;3.13;;;16.90;99.90;;;;;;5013725;28;20414;-64
2023/10/24 12:26:39;;;;;;;4.33;4.13;;;16.80;99.90;;;;;;5013786;28;20615;-64
2023/10/24 12:29:09;;;;;;;5.33;4.77;;;16.80;99.90;;;;;;5012162;28;20864;-64
2023/10/24 12:31:36;;;;;;;2.43;2.33;;;16.80;99.90;;;;;;5014081;28;20402;-64
2023/10/24 12:34:02;;;;;;;2.70;2.60;;;16.80;99.90;;;;;;5013346;28;20410;-64
2023/10/24 12:36:28;;;;;;;3.30;3.10;;;16.80;99.90;;;;;;5013865;28;20413;-64
2023/10/24 12:38:53;;;;;;;3.73;3.60;;;16.80;99.90;;;;;;5013466;28;20957;-63
2023/10/24 12:41:19;;;;;;;3.73;3.53;;;16.80;99.90;;;;;;5012272;28;20184;-63
2023/10/24 12:43:46;;;;;;;3.80;3.60;;;16.80;99.90;;;;;;5012930;28;20245;-63
2023/10/24 12:46:13;;;;;;;3.60;3.40;;;16.80;99.90;;;;;;5011987;28;20819;-65
2023/10/24 12:48:40;;;;;;;3.60;3.40;;;16.90;99.90;;;;;;5013690;28;20175;-64